createdAt,value
2022-08-22T16:19:27.889Z,24.70
2022-08-22T16:21:54.217Z,24.35
2022-08-22T16:24:23.849Z,24.61
2022-08-22T16:26:51.604Z,24.30
2022-08-22T16:29:20.846Z,24.56
2022-08-22T16:31:47.143Z,24.39
2022-08-22T16:34:16.668Z,24.08
2022-08-22T16:37:11.050Z,24.13
2022-08-22T16:39:43.394Z,24.12
2022-08-22T16:42:12.875Z,23.85
2022-08-22T16:45:05.209Z,23.77
2022-08-22T16:47:40.129Z,23.78
2022-08-22T16:50:09.451Z,23.85
2022-08-22T16:52:51.990Z,23.84
2022-08-22T16:55:30.326Z,23.88
2022-08-22T16:58:08.986Z,24.14
2022-08-22T17:00:58.038Z,23.71
2022-08-22T17:03:46.371Z,23.67
2022-08-22T17:06:28.470Z,23.68
2022-08-22T17:09:10.310Z,23.65
2022-08-22T17:12:16.636Z,23.44
2022-08-22T17:15:08.025Z,23.41
2022-08-22T17:18:14.084Z,23.44
2022-08-22T17:21:11.567Z,23.45
2022-08-22T17:24:02.472Z,23.30
2022-08-22T17:26:34.886Z,23.49
2022-08-22T17:29:25.959Z,23.26
2022-08-22T17:32:15.147Z,23.18
2022-08-22T17:35:03.954Z,22.99
2022-08-22T17:37:58.416Z,23.03
2022-08-22T17:40:53.962Z,23.27
2022-08-22T17:43:54.595Z,23.05
2022-08-22T17:46:49.658Z,22.97
2022-08-22T17:49:24.696Z,22.62
2022-08-22T17:52:13.311Z,22.60
2022-08-22T17:54:48.279Z,22.49
2022-08-22T17:57:29.087Z,22.23
2022-08-22T18:00:11.494Z,22.19
2022-08-22T18:02:45.431Z,22.01
2022-08-22T18:05:17.686Z,22.00
2022-08-22T18:08:37.368Z,21.96
2022-08-22T18:11:09.666Z,21.84
2022-08-22T18:13:54.572Z,21.99
2022-08-22T18:16:32.712Z,21.93
2022-08-22T18:19:13.177Z,21.68
2022-08-22T18:22:09.478Z,21.69
2022-08-22T18:24:50.738Z,21.66
2022-08-22T18:27:35.270Z,21.52
2022-08-22T18:30:10.991Z,21.53
2022-08-22T18:32:48.271Z,21.44
2022-08-22T18:35:25.102Z,21.23
2022-08-22T18:38:19.160Z,21.20
2022-08-22T18:40:52.387Z,21.20
2022-08-22T18:43:25.958Z,21.17
2022-08-22T18:45:52.274Z,21.07
2022-08-22T18:48:29.740Z,21.10
2022-08-22T18:51:27.560Z,20.86
2022-08-22T18:53:57.032Z,20.89
2022-08-22T18:56:55.562Z,20.92
2022-08-22T18:59:43.598Z,20.83
2022-08-22T19:02:40.654Z,20.99
2022-08-22T19:05:27.606Z,20.75
2022-08-22T19:08:00.120Z,20.63
2022-08-22T19:10:52.663Z,20.40
2022-08-22T19:13:42.842Z,20.40
2022-08-22T19:16:27.934Z,20.46
2022-08-22T19:19:02.559Z,20.24
2022-08-22T19:21:48.762Z,20.42
2022-08-22T19:24:27.038Z,20.35
2022-08-22T19:27:18.755Z,20.31
2022-08-22T19:29:45.053Z,20.29
2022-08-22T19:32:46.186Z,20.30
2022-08-22T19:35:26.075Z,20.56
2022-08-22T19:38:06.125Z,20.16
2022-08-22T19:40:44.367Z,20.03
2022-08-22T19:43:33.557Z,19.97
2022-08-22T19:46:05.733Z,20.09
2022-08-22T19:48:43.478Z,20.18
2022-08-22T19:51:19.222Z,20.13
2022-08-22T19:54:00.843Z,20.06
2022-08-22T19:57:02.856Z,20.28
2022-08-22T19:59:50.525Z,20.20
2022-08-22T20:02:32.092Z,20.23
2022-08-22T20:05:23.279Z,20.22
2022-08-22T20:07:53.040Z,20.23
2022-08-22T20:10:40.815Z,20.35
2022-08-22T20:13:20.848Z,20.19
2022-08-22T20:16:06.004Z,20.31
2022-08-22T20:19:01.908Z,20.28
2022-08-22T20:21:50.034Z,20.18
2022-08-22T20:24:34.401Z,20.02
2022-08-22T20:27:15.355Z,19.83
2022-08-22T20:29:49.924Z,20.06
2022-08-22T20:32:19.068Z,19.93
2022-08-22T20:34:47.909Z,19.81
2022-08-22T20:37:32.420Z,19.75
2022-08-22T20:40:55.377Z,19.98
2022-08-22T20:43:20.528Z,20.15
2022-08-22T20:46:04.308Z,20.13
2022-08-22T20:48:40.973Z,20.08
2022-08-22T20:51:09.322Z,19.99
2022-08-22T20:53:39.540Z,20.24
2022-08-22T20:56:07.989Z,20.26
2022-08-22T20:58:40.141Z,20.25
2022-08-22T21:01:11.248Z,20.42
2022-08-22T21:03:43.137Z,20.52
2022-08-22T21:06:21.468Z,20.58
2022-08-22T21:09:12.246Z,20.48
2022-08-22T21:11:50.274Z,20.47
2022-08-22T21:14:24.445Z,20.60
2022-08-22T21:16:51.636Z,20.61
2022-08-22T21:19:26.875Z,20.68
2022-08-22T21:21:53.788Z,20.67
2022-08-22T21:24:20.488Z,20.70
2022-08-22T21:27:00.539Z,20.76
2022-08-22T21:29:32.862Z,20.79
2022-08-22T21:32:16.700Z,20.75
2022-08-22T21:34:46.882Z,20.66
2022-08-22T21:37:25.447Z,20.67
2022-08-22T21:40:03.036Z,20.69
2022-08-22T21:42:36.918Z,20.69
2022-08-22T21:45:25.399Z,20.80
2022-08-22T21:47:52.703Z,20.67
2022-08-22T21:50:19.178Z,20.68
2022-08-22T21:52:54.462Z,20.67
2022-08-22T21:55:28.826Z,20.58
2022-08-22T21:58:05.058Z,20.54
2022-08-22T22:00:49.518Z,20.63
2022-08-22T22:03:18.818Z,20.69
2022-08-22T22:05:45.397Z,20.68
2022-08-22T22:08:12.333Z,20.50
2022-08-22T22:10:42.123Z,20.61
2022-08-22T22:13:09.110Z,20.63
2022-08-22T22:15:46.890Z,20.44
2022-08-22T22:18:16.597Z,20.52
2022-08-22T22:20:44.171Z,20.52
2022-08-22T22:23:10.688Z,20.40
2022-08-22T22:25:42.223Z,20.44
2022-08-22T22:28:21.400Z,20.31
2022-08-22T22:30:51.539Z,20.36
2022-08-22T22:33:19.628Z,20.33
2022-08-22T22:35:47.345Z,20.35
2022-08-22T22:38:14.634Z,20.27
2022-08-22T22:40:42.136Z,20.32
2022-08-22T22:43:10.255Z,20.33
2022-08-22T22:45:37.390Z,20.24
2022-08-22T22:48:05.591Z,20.20
2022-08-22T22:50:33.324Z,20.33
2022-08-22T22:52:59.692Z,20.25
2022-08-22T22:55:26.267Z,20.15
2022-08-22T22:57:59.224Z,20.06
2022-08-22T23:00:29.205Z,20.16
2022-08-22T23:02:57.587Z,20.04
2022-08-22T23:05:23.989Z,20.04
2022-08-22T23:07:50.496Z,20.05
2022-08-22T23:10:21.758Z,20.13
2022-08-22T23:12:48.595Z,20.13
2022-08-22T23:15:15.575Z,20.09
2022-08-22T23:17:42.532Z,20.13
2022-08-22T23:20:09.222Z,20.04
2022-08-22T23:22:35.594Z,19.97
2022-08-22T23:25:02.263Z,19.95
2022-08-22T23:27:28.651Z,19.92
2022-08-22T23:29:55.070Z,19.74
2022-08-22T23:32:21.459Z,19.77
2022-08-22T23:34:48.928Z,19.86
2022-08-22T23:37:18.851Z,19.92
2022-08-22T23:39:45.376Z,19.78
2022-08-22T23:42:12.462Z,19.85
2022-08-22T23:44:41.021Z,19.89
2022-08-22T23:47:09.534Z,19.85
2022-08-22T23:49:38.357Z,19.70
2022-08-22T23:52:06.162Z,19.78
2022-08-22T23:54:33.803Z,19.75
2022-08-22T23:57:02.444Z,19.77
2022-08-22T23:59:38.529Z,19.66
